sensor_id;sensor_type;location;lat;lon;timestamp;pressure;altitude;pressure_sealevel;temperature;humidity
57086;BME280;42964;42.910;23.792;2022-07-29T00:01:07;97683.66;;;20.97;79.47
57086;BME280;42964;42.910;23.792;2022-07-29T00:06:06;97680.69;;;20.84;81.31
57086;BME280;42964;42.910;23.792;2022-07-29T00:11:05;97683.84;;;20.52;82.97
57086;BME280;42964;42.910;23.792;2022-07-29T00:16:04;97671.72;;;20.05;85.34
57086;BME280;42964;42.910;23.792;2022-07-29T00:21:03;97678.13;;;19.76;87.13
57086;BME280;42964;42.910;23.792;2022-07-29T00:26:02;97681.06;;;19.68;87.02
57086;BME280;42964;42.910;23.792;2022-07-29T00:31:01;97692.09;;;19.54;88.94
57086;BME280;42964;42.910;23.792;2022-07-29T00:36:00;97686.88;;;19.29;90.65
57086;BME280;42964;42.910;23.792;2022-07-29T00:40:59;97668.81;;;19.20;90.26
57086;BME280;42964;42.910;23.792;2022-07-29T00:45:58;97684.03;;;19.35;89.55
57086;BME280;42964;42.910;23.792;2022-07-29T00:51:01;97688.63;;;19.30;89.83
57086;BME280;42964;42.910;23.792;2022-07-29T00:56:01;97705.28;;;19.29;89.70
57086;BME280;42964;42.910;23.792;2022-07-29T01:01:00;97712.38;;;19.27;89.64
57086;BME280;42964;42.910;23.792;2022-07-29T01:05:59;97701.31;;;19.19;89.64
57086;BME280;42964;42.910;23.792;2022-07-29T01:10:59;97708.94;;;19.25;89.34
57086;BME280;42964;42.910;23.792;2022-07-29T01:16:07;97706.47;;;19.20;90.09
57086;BME280;42964;42.910;23.792;2022-07-29T01:26:34;97706.31;;;19.25;89.63
57086;BME280;42964;42.910;23.792;2022-07-29T01:31:47;97711.66;;;19.23;89.36
57086;BME280;42964;42.910;23.792;2022-07-29T01:36:51;97707.28;;;19.22;89.41
57086;BME280;42964;42.910;23.792;2022-07-29T01:47:20;97695.44;;;19.11;90.04
57086;BME280;42964;42.910;23.792;2022-07-29T01:52:42;97694.63;;;19.09;89.95
57086;BME280;42964;42.910;23.792;2022-07-29T01:57:46;97693.75;;;19.10;89.75
57086;BME280;42964;42.910;23.792;2022-07-29T02:02:47;97695.91;;;18.98;90.75
57086;BME280;42964;42.910;23.792;2022-07-29T02:07:47;97685.50;;;18.70;91.24
57086;BME280;42964;42.910;23.792;2022-07-29T02:12:48;97698.59;;;18.72;91.21
57086;BME280;42964;42.910;23.792;2022-07-29T02:17:51;97690.06;;;18.64;91.26
57086;BME280;42964;42.910;23.792;2022-07-29T02:22:53;97693.94;;;18.53;91.47
57086;BME280;42964;42.910;23.792;2022-07-29T02:27:53;97701.94;;;18.50;91.53
57086;BME280;42964;42.910;23.792;2022-07-29T02:32:53;97694.13;;;18.47;91.50
57086;BME280;42964;42.910;23.792;2022-07-29T02:37:53;97703.63;;;18.51;91.39
57086;BME280;42964;42.910;23.792;2022-07-29T02:43:11;97703.53;;;18.54;91.18
57086;BME280;42964;42.910;23.792;2022-07-29T02:48:14;97696.56;;;18.53;90.92
57086;BME280;42964;42.910;23.792;2022-07-29T02:53:18;97707.19;;;18.50;91.33
57086;BME280;42964;42.910;23.792;2022-07-29T02:58:42;97699.47;;;18.46;91.22
57086;BME280;42964;42.910;23.792;2022-07-29T03:03:46;97706.53;;;18.44;91.10
57086;BME280;42964;42.910;23.792;2022-07-29T03:08:46;97702.38;;;18.36;90.61
57086;BME280;42964;42.910;23.792;2022-07-29T03:13:46;97697.13;;;18.36;90.56
57086;BME280;42964;42.910;23.792;2022-07-29T03:18:45;97703.28;;;18.35;90.41
57086;BME280;42964;42.910;23.792;2022-07-29T03:23:45;97687.88;;;18.25;90.07
57086;BME280;42964;42.910;23.792;2022-07-29T03:28:44;97705.06;;;18.35;89.35
57086;BME280;42964;42.910;23.792;2022-07-29T03:33:43;97708.25;;;18.18;88.32
57086;BME280;42964;42.910;23.792;2022-07-29T03:38:42;97715.19;;;17.92;89.00
57086;BME280;42964;42.910;23.792;2022-07-29T03:43:43;97709.78;;;17.97;88.32
57086;BME280;42964;42.910;23.792;2022-07-29T03:48:46;97697.41;;;18.01;87.39
57086;BME280;42964;42.910;23.792;2022-07-29T03:53:47;97707.47;;;18.14;86.01
57086;BME280;42964;42.910;23.792;2022-07-29T03:58:46;97713.63;;;18.13;85.69
57086;BME280;42964;42.910;23.792;2022-07-29T04:03:45;97711.19;;;18.07;85.79
57086;BME280;42964;42.910;23.792;2022-07-29T04:08:45;97720.75;;;18.10;85.97
57086;BME280;42964;42.910;23.792;2022-07-29T04:13:44;97727.47;;;18.18;87.65
57086;BME280;42964;42.910;23.792;2022-07-29T04:18:42;97719.19;;;18.31;87.87
57086;BME280;42964;42.910;23.792;2022-07-29T04:23:41;97722.03;;;18.51;87.88
57086;BME280;42964;42.910;23.792;2022-07-29T04:28:43;97716.19;;;18.70;87.91
57086;BME280;42964;42.910;23.792;2022-07-29T04:33:42;97721.63;;;18.90;87.88
57086;BME280;42964;42.910;23.792;2022-07-29T04:38:42;97719.56;;;18.98;87.10
57086;BME280;42964;42.910;23.792;2022-07-29T04:43:40;97726.19;;;19.09;87.10
57086;BME280;42964;42.910;23.792;2022-07-29T04:48:40;97725.09;;;19.16;86.28
57086;BME280;42964;42.910;23.792;2022-07-29T04:53:39;97731.69;;;19.28;86.21
57086;BME280;42964;42.910;23.792;2022-07-29T04:58:37;97742.47;;;19.43;85.68
57086;BME280;42964;42.910;23.792;2022-07-29T05:03:36;97733.69;;;19.44;85.48
57086;BME280;42964;42.910;23.792;2022-07-29T05:08:36;97730.72;;;19.54;85.08
57086;BME280;42964;42.910;23.792;2022-07-29T05:13:35;97736.56;;;19.62;85.04
57086;BME280;42964;42.910;23.792;2022-07-29T05:18:34;97746.19;;;19.63;84.31
57086;BME280;42964;42.910;23.792;2022-07-29T05:23:33;97737.38;;;19.64;84.47
57086;BME280;42964;42.910;23.792;2022-07-29T05:28:35;97744.47;;;19.62;84.49
57086;BME280;42964;42.910;23.792;2022-07-29T05:33:33;97748.94;;;19.60;84.61
57086;BME280;42964;42.910;23.792;2022-07-29T05:38:34;97743.78;;;19.55;84.59
57086;BME280;42964;42.910;23.792;2022-07-29T05:43:33;97759.44;;;19.60;84.77
57086;BME280;42964;42.910;23.792;2022-07-29T05:48:32;97769.47;;;19.74;84.64
57086;BME280;42964;42.910;23.792;2022-07-29T05:53:31;97765.91;;;19.98;83.83
57086;BME280;42964;42.910;23.792;2022-07-29T05:58:30;97772.66;;;20.27;82.70
57086;BME280;42964;42.910;23.792;2022-07-29T06:03:29;97771.63;;;20.54;81.36
57086;BME280;42964;42.910;23.792;2022-07-29T06:08:28;97764.38;;;20.81;80.11
57086;BME280;42964;42.910;23.792;2022-07-29T06:13:27;97769.47;;;21.06;78.29
57086;BME280;42964;42.910;23.792;2022-07-29T06:18:26;97780.81;;;21.28;77.19
57086;BME280;42964;42.910;23.792;2022-07-29T06:23:25;97774.72;;;21.47;76.70
57086;BME280;42964;42.910;23.792;2022-07-29T06:28:24;97777.28;;;21.69;76.05
57086;BME280;42964;42.910;23.792;2022-07-29T06:33:23;97777.19;;;21.89;73.77
57086;BME280;42964;42.910;23.792;2022-07-29T06:38:22;97749.78;;;21.92;73.12
57086;BME280;42964;42.910;23.792;2022-07-29T06:43:21;97765.88;;;22.25;72.24
57086;BME280;42964;42.910;23.792;2022-07-29T06:48:20;97763.41;;;22.39;69.95
57086;BME280;42964;42.910;23.792;2022-07-29T06:53:19;97745.41;;;22.65;68.81
57086;BME280;42964;42.910;23.792;2022-07-29T06:58:18;97743.72;;;22.82;66.90
57086;BME280;42964;42.910;23.792;2022-07-29T07:03:19;97752.13;;;23.07;66.39
57086;BME280;42964;42.910;23.792;2022-07-29T07:08:18;97739.16;;;23.36;65.93
57086;BME280;42964;42.910;23.792;2022-07-29T07:13:19;97723.56;;;23.47;62.74
57086;BME280;42964;42.910;23.792;2022-07-29T07:18:18;97744.44;;;23.69;62.41
57086;BME280;42964;42.910;23.792;2022-07-29T07:23:17;97730.44;;;23.83;61.35
57086;BME280;42964;42.910;23.792;2022-07-29T07:28:16;97734.13;;;24.12;61.38
57086;BME280;42964;42.910;23.792;2022-07-29T07:33:15;97730.81;;;24.09;59.01
57086;BME280;42964;42.910;23.792;2022-07-29T07:38:14;97731.81;;;24.38;60.50
57086;BME280;42964;42.910;23.792;2022-07-29T07:43:13;97733.56;;;24.69;59.79
57086;BME280;42964;42.910;23.792;2022-07-29T07:48:12;97731.72;;;24.85;57.25
57086;BME280;42964;42.910;23.792;2022-07-29T07:53:11;97718.13;;;25.06;57.25
57086;BME280;42964;42.910;23.792;2022-07-29T07:58:10;97726.28;;;25.31;56.49
57086;BME280;42964;42.910;23.792;2022-07-29T08:03:09;97729.19;;;25.57;54.51
57086;BME280;42964;42.910;23.792;2022-07-29T08:08:11;97710.00;;;25.66;53.13
57086;BME280;42964;42.910;23.792;2022-07-29T08:13:10;97705.91;;;25.75;51.69
57086;BME280;42964;42.910;23.792;2022-07-29T08:18:13;97710.31;;;26.03;52.27
57086;BME280;42964;42.910;23.792;2022-07-29T08:23:12;97708.94;;;26.25;50.83
57086;BME280;42964;42.910;23.792;2022-07-29T08:28:11;97696.88;;;26.46;49.03
57086;BME280;42964;42.910;23.792;2022-07-29T08:33:09;97689.06;;;26.70;50.05
57086;BME280;42964;42.910;23.792;2022-07-29T08:38:08;97689.41;;;26.78;49.01
57086;BME280;42964;42.910;23.792;2022-07-29T08:43:08;97687.22;;;26.98;49.83
57086;BME280;42964;42.910;23.792;2022-07-29T08:48:07;97676.03;;;27.31;50.28
57086;BME280;42964;42.910;23.792;2022-07-29T08:53:09;97689.22;;;27.46;48.28
57086;BME280;42964;42.910;23.792;2022-07-29T08:58:10;97674.22;;;27.57;48.08
57086;BME280;42964;42.910;23.792;2022-07-29T09:03:12;97668.53;;;27.62;48.91
57086;BME280;42964;42.910;23.792;2022-07-29T09:08:14;97673.06;;;27.86;47.02
57086;BME280;42964;42.910;23.792;2022-07-29T09:13:14;97668.34;;;27.89;46.78
57086;BME280;42964;42.910;23.792;2022-07-29T09:23:37;97665.75;;;28.13;44.23
57086;BME280;42964;42.910;23.792;2022-07-29T09:28:42;97654.66;;;28.31;45.68
57086;BME280;42964;42.910;23.792;2022-07-29T09:33:42;97656.03;;;28.36;44.12
57086;BME280;42964;42.910;23.792;2022-07-29T09:38:41;97650.53;;;28.62;44.18
57086;BME280;42964;42.910;23.792;2022-07-29T09:43:40;97652.63;;;28.70;44.10
57086;BME280;42964;42.910;23.792;2022-07-29T09:48:41;97636.41;;;28.84;42.85
57086;BME280;42964;42.910;23.792;2022-07-29T09:53:40;97647.00;;;29.08;42.81
57086;BME280;42964;42.910;23.792;2022-07-29T09:58:39;97633.28;;;29.13;42.25
57086;BME280;42964;42.910;23.792;2022-07-29T10:03:54;97630.84;;;29.21;41.27
57086;BME280;42964;42.910;23.792;2022-07-29T10:08:53;97626.88;;;29.26;41.64
57086;BME280;42964;42.910;23.792;2022-07-29T10:13:53;97620.16;;;29.55;41.12
57086;BME280;42964;42.910;23.792;2022-07-29T10:18:52;97612.09;;;29.77;41.10
57086;BME280;42964;42.910;23.792;2022-07-29T10:23:52;97601.97;;;30.03;40.74
57086;BME280;42964;42.910;23.792;2022-07-29T10:28:51;97598.78;;;30.09;40.72
57086;BME280;42964;42.910;23.792;2022-07-29T10:44:21;97577.00;;;30.56;39.81
57086;BME280;42964;42.910;23.792;2022-07-29T10:49:23;97558.94;;;30.48;39.81
57086;BME280;42964;42.910;23.792;2022-07-29T10:59:35;97556.06;;;30.92;38.99
57086;BME280;42964;42.910;23.792;2022-07-29T11:09:42;97547.66;;;31.37;38.16
57086;BME280;42964;42.910;23.792;2022-07-29T11:14:57;97539.78;;;31.45;37.99
57086;BME280;42964;42.910;23.792;2022-07-29T11:25:33;97533.03;;;31.61;37.82
57086;BME280;42964;42.910;23.792;2022-07-29T11:31:01;97528.41;;;31.63;36.42
57086;BME280;42964;42.910;23.792;2022-07-29T11:36:27;97526.13;;;31.87;37.25
57086;BME280;42964;42.910;23.792;2022-07-29T11:41:26;97517.69;;;32.11;34.90
57086;BME280;42964;42.910;23.792;2022-07-29T11:46:47;97514.16;;;32.30;35.00
57086;BME280;42964;42.910;23.792;2022-07-29T11:51:56;97509.47;;;32.32;34.49
57086;BME280;42964;42.910;23.792;2022-07-29T11:56:57;97520.50;;;32.39;33.59
57086;BME280;42964;42.910;23.792;2022-07-29T12:01:58;97510.59;;;32.20;33.97
57086;BME280;42964;42.910;23.792;2022-07-29T12:06:57;97508.41;;;32.53;34.10
57086;BME280;42964;42.910;23.792;2022-07-29T12:11:56;97499.28;;;33.20;33.75
57086;BME280;42964;42.910;23.792;2022-07-29T12:16:57;97494.59;;;33.86;32.33
57086;BME280;42964;42.910;23.792;2022-07-29T12:21:56;97498.19;;;34.30;32.51
57086;BME280;42964;42.910;23.792;2022-07-29T12:26:58;97496.97;;;34.07;33.98
57086;BME280;42964;42.910;23.792;2022-07-29T12:31:57;97513.34;;;33.14;35.32
57086;BME280;42964;42.910;23.792;2022-07-29T12:36:56;97503.94;;;32.91;36.42
57086;BME280;42964;42.910;23.792;2022-07-29T12:41:55;97500.44;;;32.80;35.66
57086;BME280;42964;42.910;23.792;2022-07-29T12:47:03;97495.94;;;32.71;36.27
57086;BME280;42964;42.910;23.792;2022-07-29T12:52:23;97499.41;;;32.91;35.57
57086;BME280;42964;42.910;23.792;2022-07-29T12:57:22;97492.69;;;33.05;35.59
57086;BME280;42964;42.910;23.792;2022-07-29T13:02:22;97481.16;;;33.22;35.07
57086;BME280;42964;42.910;23.792;2022-07-29T13:07:30;97480.88;;;33.25;35.86
57086;BME280;42964;42.910;23.792;2022-07-29T13:12:29;97473.25;;;33.21;35.55
57086;BME280;42964;42.910;23.792;2022-07-29T13:17:39;97471.81;;;33.26;35.56
57086;BME280;42964;42.910;23.792;2022-07-29T13:22:39;97464.81;;;33.06;35.50
57086;BME280;42964;42.910;23.792;2022-07-29T13:27:39;97469.03;;;33.09;36.26
57086;BME280;42964;42.910;23.792;2022-07-29T13:32:43;97465.41;;;33.28;35.72
57086;BME280;42964;42.910;23.792;2022-07-29T13:37:42;97462.97;;;33.34;34.75
57086;BME280;42964;42.910;23.792;2022-07-29T13:42:41;97452.91;;;33.36;34.83
57086;BME280;42964;42.910;23.792;2022-07-29T13:47:40;97459.47;;;33.52;34.25
57086;BME280;42964;42.910;23.792;2022-07-29T13:52:39;97454.16;;;33.78;31.56
57086;BME280;42964;42.910;23.792;2022-07-29T13:57:38;97463.41;;;33.12;30.53
57086;BME280;42964;42.910;23.792;2022-07-29T14:02:37;97439.66;;;33.25;30.18
57086;BME280;42964;42.910;23.792;2022-07-29T14:07:37;97438.91;;;33.51;29.98
57086;BME280;42964;42.910;23.792;2022-07-29T14:12:37;97442.63;;;33.50;28.43
57086;BME280;42964;42.910;23.792;2022-07-29T14:17:36;97440.44;;;33.17;28.97
57086;BME280;42964;42.910;23.792;2022-07-29T14:22:35;97443.94;;;32.90;28.48
57086;BME280;42964;42.910;23.792;2022-07-29T14:27:34;97458.63;;;32.68;30.07
57086;BME280;42964;42.910;23.792;2022-07-29T14:32:33;97452.25;;;32.22;29.21
57086;BME280;42964;42.910;23.792;2022-07-29T14:37:32;97480.69;;;31.86;30.95
57086;BME280;42964;42.910;23.792;2022-07-29T14:42:31;97495.19;;;31.64;32.32
57086;BME280;42964;42.910;23.792;2022-07-29T14:47:30;97513.06;;;30.63;41.67
57086;BME280;42964;42.910;23.792;2022-07-29T14:52:29;97512.47;;;29.53;46.25
57086;BME280;42964;42.910;23.792;2022-07-29T14:57:28;97514.88;;;28.67;47.31
57086;BME280;42964;42.910;23.792;2022-07-29T15:02:27;97522.19;;;28.30;47.08
57086;BME280;42964;42.910;23.792;2022-07-29T15:07:26;97524.47;;;28.70;46.91
57086;BME280;42964;42.910;23.792;2022-07-29T15:12:25;97515.94;;;28.64;46.52
57086;BME280;42964;42.910;23.792;2022-07-29T15:17:24;97512.81;;;28.71;45.85
57086;BME280;42964;42.910;23.792;2022-07-29T15:22:23;97499.09;;;28.86;44.34
57086;BME280;42964;42.910;23.792;2022-07-29T15:27:22;97499.94;;;28.98;44.20
57086;BME280;42964;42.910;23.792;2022-07-29T15:32:21;97495.31;;;29.12;44.01
57086;BME280;42964;42.910;23.792;2022-07-29T15:37:20;97504.00;;;29.25;44.01
57086;BME280;42964;42.910;23.792;2022-07-29T15:42:19;97485.38;;;29.57;44.39
57086;BME280;42964;42.910;23.792;2022-07-29T15:47:18;97493.19;;;29.81;44.02
57086;BME280;42964;42.910;23.792;2022-07-29T15:52:18;97480.41;;;29.53;43.62
57086;BME280;42964;42.910;23.792;2022-07-29T15:57:18;97481.41;;;29.40;43.21
57086;BME280;42964;42.910;23.792;2022-07-29T16:02:16;97485.84;;;29.30;43.71
57086;BME280;42964;42.910;23.792;2022-07-29T16:07:16;97487.97;;;29.25;42.83
57086;BME280;42964;42.910;23.792;2022-07-29T16:12:15;97491.41;;;29.27;43.14
57086;BME280;42964;42.910;23.792;2022-07-29T16:17:14;97488.97;;;29.24;42.85
57086;BME280;42964;42.910;23.792;2022-07-29T16:22:13;97500.19;;;29.06;42.35
57086;BME280;42964;42.910;23.792;2022-07-29T16:27:12;97512.22;;;28.78;42.67
57086;BME280;42964;42.910;23.792;2022-07-29T16:32:11;97518.84;;;28.61;43.37
57086;BME280;42964;42.910;23.792;2022-07-29T16:37:10;97521.66;;;28.60;43.12
57086;BME280;42964;42.910;23.792;2022-07-29T16:42:09;97519.19;;;28.57;44.04
57086;BME280;42964;42.910;23.792;2022-07-29T16:47:07;97516.28;;;28.49;44.83
57086;BME280;42964;42.910;23.792;2022-07-29T16:52:06;97511.91;;;28.59;45.06
57086;BME280;42964;42.910;23.792;2022-07-29T16:57:05;97516.56;;;28.68;45.44
57086;BME280;42964;42.910;23.792;2022-07-29T17:02:04;97520.81;;;28.71;45.13
57086;BME280;42964;42.910;23.792;2022-07-29T17:07:03;97510.59;;;28.64;45.50
57086;BME280;42964;42.910;23.792;2022-07-29T17:12:03;97507.19;;;28.62;46.21
57086;BME280;42964;42.910;23.792;2022-07-29T17:17:02;97507.41;;;28.59;47.02
57086;BME280;42964;42.910;23.792;2022-07-29T17:22:03;97512.41;;;28.53;47.86
57086;BME280;42964;42.910;23.792;2022-07-29T17:27:02;97511.19;;;28.45;48.12
57086;BME280;42964;42.910;23.792;2022-07-29T17:32:01;97511.63;;;28.28;49.16
57086;BME280;42964;42.910;23.792;2022-07-29T17:37:01;97510.50;;;28.08;49.98
57086;BME280;42964;42.910;23.792;2022-07-29T17:42:05;97504.81;;;27.89;50.52
57086;BME280;42964;42.910;23.792;2022-07-29T17:47:05;97513.34;;;27.70;50.94
57086;BME280;42964;42.910;23.792;2022-07-29T17:52:04;97518.34;;;27.50;51.76
57086;BME280;42964;42.910;23.792;2022-07-29T17:57:03;97513.69;;;27.28;52.75
57086;BME280;42964;42.910;23.792;2022-07-29T18:02:02;97518.06;;;27.05;53.52
57086;BME280;42964;42.910;23.792;2022-07-29T18:07:01;97525.97;;;26.94;54.58
57086;BME280;42964;42.910;23.792;2022-07-29T18:12:00;97523.19;;;26.70;55.44
57086;BME280;42964;42.910;23.792;2022-07-29T18:16:59;97532.34;;;26.53;56.77
57086;BME280;42964;42.910;23.792;2022-07-29T18:21:58;97541.72;;;26.33;57.20
57086;BME280;42964;42.910;23.792;2022-07-29T18:26:57;97545.22;;;26.21;57.17
57086;BME280;42964;42.910;23.792;2022-07-29T18:31:56;97543.16;;;26.11;57.26
57086;BME280;42964;42.910;23.792;2022-07-29T18:36:56;97557.91;;;26.03;57.74
57086;BME280;42964;42.910;23.792;2022-07-29T18:41:55;97555.94;;;25.92;58.26
57086;BME280;42964;42.910;23.792;2022-07-29T18:46:54;97552.41;;;25.79;58.84
57086;BME280;42964;42.910;23.792;2022-07-29T18:51:53;97561.38;;;25.63;59.32
57086;BME280;42964;42.910;23.792;2022-07-29T18:56:54;97554.47;;;25.46;59.88
57086;BME280;42964;42.910;23.792;2022-07-29T19:01:53;97562.50;;;25.32;60.11
57086;BME280;42964;42.910;23.792;2022-07-29T19:06:52;97574.63;;;25.22;60.84
57086;BME280;42964;42.910;23.792;2022-07-29T19:11:51;97580.66;;;24.97;65.22
57086;BME280;42964;42.910;23.792;2022-07-29T19:16:51;97580.72;;;24.81;66.94
57086;BME280;42964;42.910;23.792;2022-07-29T19:21:50;97584.75;;;24.58;67.98
57086;BME280;42964;42.910;23.792;2022-07-29T19:26:49;97581.78;;;24.34;69.59
57086;BME280;42964;42.910;23.792;2022-07-29T19:31:47;97573.69;;;24.21;70.19
57086;BME280;42964;42.910;23.792;2022-07-29T19:36:46;97581.22;;;24.13;70.10
57086;BME280;42964;42.910;23.792;2022-07-29T19:41:45;97586.69;;;24.10;70.37
57086;BME280;42964;42.910;23.792;2022-07-29T19:46:45;97598.44;;;24.05;70.93
57086;BME280;42964;42.910;23.792;2022-07-29T19:51:44;97587.66;;;23.93;72.53
57086;BME280;42964;42.910;23.792;2022-07-29T19:56:43;97583.59;;;23.87;72.67
57086;BME280;42964;42.910;23.792;2022-07-29T20:01:42;97590.97;;;23.82;72.86
57086;BME280;42964;42.910;23.792;2022-07-29T20:06:41;97587.53;;;23.80;73.17
57086;BME280;42964;42.910;23.792;2022-07-29T20:11:40;97587.69;;;23.77;73.46
57086;BME280;42964;42.910;23.792;2022-07-29T20:16:39;97587.88;;;23.74;72.86
57086;BME280;42964;42.910;23.792;2022-07-29T20:21:38;97585.03;;;23.77;72.79
57086;BME280;42964;42.910;23.792;2022-07-29T20:26:37;97580.69;;;23.76;72.43
57086;BME280;42964;42.910;23.792;2022-07-29T20:31:36;97586.94;;;23.75;72.10
57086;BME280;42964;42.910;23.792;2022-07-29T20:36:35;97585.41;;;23.71;71.82
57086;BME280;42964;42.910;23.792;2022-07-29T20:41:34;97582.91;;;23.68;71.58
57086;BME280;42964;42.910;23.792;2022-07-29T20:46:33;97584.81;;;23.66;72.34
57086;BME280;42964;42.910;23.792;2022-07-29T20:51:32;97591.16;;;23.47;73.31
57086;BME280;42964;42.910;23.792;2022-07-29T20:56:31;97588.53;;;23.30;73.90
57086;BME280;42964;42.910;23.792;2022-07-29T21:01:30;97583.84;;;23.19;74.19
57086;BME280;42964;42.910;23.792;2022-07-29T21:06:30;97587.00;;;23.10;73.95
57086;BME280;42964;42.910;23.792;2022-07-29T21:11:29;97580.59;;;22.98;74.22
57086;BME280;42964;42.910;23.792;2022-07-29T21:16:28;97585.41;;;22.90;74.35
57086;BME280;42964;42.910;23.792;2022-07-29T21:21:28;97576.44;;;22.76;75.04
57086;BME280;42964;42.910;23.792;2022-07-29T21:26:27;97577.13;;;22.80;75.00
57086;BME280;42964;42.910;23.792;2022-07-29T21:31:26;97578.22;;;22.76;75.50
57086;BME280;42964;42.910;23.792;2022-07-29T21:36:25;97582.78;;;22.72;75.55
57086;BME280;42964;42.910;23.792;2022-07-29T21:41:24;97577.81;;;22.66;76.04
57086;BME280;42964;42.910;23.792;2022-07-29T21:46:24;97585.31;;;22.58;76.31
57086;BME280;42964;42.910;23.792;2022-07-29T21:51:23;97581.28;;;22.51;76.72
57086;BME280;42964;42.910;23.792;2022-07-29T21:56:22;97582.53;;;22.44;76.61
57086;BME280;42964;42.910;23.792;2022-07-29T22:01:21;97586.81;;;22.46;76.38
57086;BME280;42964;42.910;23.792;2022-07-29T22:06:21;97569.22;;;22.45;76.35
57086;BME280;42964;42.910;23.792;2022-07-29T22:11:20;97569.75;;;22.52;75.64
57086;BME280;42964;42.910;23.792;2022-07-29T22:16:19;97565.41;;;22.51;76.03
57086;BME280;42964;42.910;23.792;2022-07-29T22:21:18;97562.78;;;22.51;75.61
57086;BME280;42964;42.910;23.792;2022-07-29T22:26:17;97561.38;;;22.44;76.16
57086;BME280;42964;42.910;23.792;2022-07-29T22:31:16;97555.44;;;22.38;76.08
57086;BME280;42964;42.910;23.792;2022-07-29T22:36:15;97565.66;;;22.29;77.28
57086;BME280;42964;42.910;23.792;2022-07-29T22:41:14;97568.53;;;22.07;78.31
57086;BME280;42964;42.910;23.792;2022-07-29T22:46:13;97567.88;;;21.84;78.99
57086;BME280;42964;42.910;23.792;2022-07-29T22:51:12;97566.75;;;21.71;79.49
57086;BME280;42964;42.910;23.792;2022-07-29T22:56:11;97560.22;;;21.61;80.47
57086;BME280;42964;42.910;23.792;2022-07-29T23:01:11;97564.09;;;21.53;80.66
57086;BME280;42964;42.910;23.792;2022-07-29T23:06:10;97562.81;;;21.43;81.35
57086;BME280;42964;42.910;23.792;2022-07-29T23:11:09;97556.47;;;21.28;83.00
57086;BME280;42964;42.910;23.792;2022-07-29T23:16:08;97550.69;;;21.20;82.62
57086;BME280;42964;42.910;23.792;2022-07-29T23:21:07;97550.97;;;21.14;82.91
57086;BME280;42964;42.910;23.792;2022-07-29T23:26:06;97552.13;;;21.08;83.60
57086;BME280;42964;42.910;23.792;2022-07-29T23:31:04;97548.97;;;21.00;84.10
57086;BME280;42964;42.910;23.792;2022-07-29T23:36:03;97540.00;;;20.85;nan
57086;BME280;42964;42.910;23.792;2022-07-29T23:41:02;97558.25;;;20.90;84.85
57086;BME280;42964;42.910;23.792;2022-07-29T23:46:06;97556.06;;;20.79;85.63
57086;BME280;42964;42.910;23.792;2022-07-29T23:51:05;97548.91;;;20.43;86.52
57086;BME280;42964;42.910;23.792;2022-07-29T23:56:05;97544.63;;;20.41;85.96
